createdAt,value
2023-02-19T00:00:10.185Z,1.37
2023-02-19T00:02:57.798Z,1.53
2023-02-19T00:05:45.681Z,1.30
2023-02-19T00:08:33.587Z,1.20
2023-02-19T00:11:22.344Z,1.33
2023-02-19T00:14:09.831Z,1.30
2023-02-19T00:16:57.290Z,1.50
2023-02-19T00:19:44.470Z,1.20
2023-02-19T00:22:32.141Z,1.10
2023-02-19T00:25:19.420Z,1.30
2023-02-19T00:28:06.755Z,1.50
2023-02-19T00:30:54.148Z,1.00
2023-02-19T00:33:42.238Z,1.50
2023-02-19T00:36:30.474Z,1.40
2023-02-19T00:39:18.915Z,1.20
2023-02-19T00:42:06.258Z,1.10
2023-02-19T00:44:53.841Z,1.07
2023-02-19T00:47:41.145Z,1.30
2023-02-19T00:50:28.416Z,1.23
2023-02-19T00:53:15.706Z,1.37
2023-02-19T00:56:03.505Z,1.20
2023-02-19T00:58:51.045Z,1.17
2023-02-19T01:01:39.012Z,0.90
2023-02-19T01:04:26.268Z,1.07
2023-02-19T01:07:14.071Z,1.20
2023-02-19T01:10:01.329Z,1.33
2023-02-19T01:12:48.612Z,1.37
2023-02-19T01:15:35.954Z,1.40
2023-02-19T01:18:23.720Z,1.40
2023-02-19T01:21:15.714Z,1.27
2023-02-19T01:24:03.087Z,1.23
2023-02-19T01:26:50.318Z,1.27
2023-02-19T01:29:38.312Z,1.00
2023-02-19T01:32:25.614Z,1.40
2023-02-19T01:35:13.462Z,1.10
2023-02-19T01:38:00.682Z,1.20
2023-02-19T01:40:55.314Z,1.40
2023-02-19T01:44:01.521Z,1.20
2023-02-19T01:46:51.936Z,1.60
2023-02-19T01:49:48.513Z,1.20
2023-02-19T01:52:37.489Z,1.13
2023-02-19T01:55:25.063Z,1.20
2023-02-19T01:58:13.026Z,1.30
2023-02-19T02:01:02.129Z,1.30
2023-02-19T02:03:50.441Z,1.33
2023-02-19T02:06:47.588Z,1.27
2023-02-19T02:09:54.062Z,1.13
2023-02-19T02:12:41.352Z,1.50
2023-02-19T02:15:34.492Z,1.30
2023-02-19T02:18:27.402Z,1.60
2023-02-19T02:21:44.576Z,1.10
2023-02-19T02:24:42.206Z,1.30
2023-02-19T02:27:39.814Z,1.30
2023-02-19T02:30:27.807Z,1.50
2023-02-19T02:33:31.521Z,1.60
2023-02-19T02:36:19.262Z,1.40
2023-02-19T02:39:08.688Z,1.87
2023-02-19T02:42:19.187Z,1.80
2023-02-19T02:45:37.771Z,1.70
2023-02-19T02:48:37.323Z,1.47
2023-02-19T02:51:30.212Z,1.53
2023-02-19T02:54:40.057Z,1.40
2023-02-19T02:57:27.369Z,1.60
2023-02-19T03:00:15.217Z,1.90
2023-02-19T03:03:03.028Z,1.93
2023-02-19T03:05:51.575Z,1.70
2023-02-19T03:08:41.365Z,1.60
2023-02-19T03:11:48.295Z,1.90
2023-02-19T03:14:59.685Z,2.03
2023-02-19T03:18:08.202Z,2.10
2023-02-19T03:20:57.054Z,1.67
2023-02-19T03:24:04.338Z,1.70
2023-02-19T03:26:53.989Z,1.60
2023-02-19T03:29:43.242Z,1.97
2023-02-19T03:32:33.028Z,1.97
2023-02-19T03:35:23.249Z,1.73
2023-02-19T03:38:18.369Z,1.93
2023-02-19T03:41:06.307Z,1.67
2023-02-19T03:44:01.389Z,2.40
2023-02-19T03:46:55.323Z,2.13
2023-02-19T03:49:42.733Z,1.97
2023-02-19T03:52:39.758Z,1.80
2023-02-19T03:55:47.279Z,2.20
2023-02-19T03:58:53.853Z,1.80
2023-02-19T04:01:56.635Z,2.10
2023-02-19T04:04:44.468Z,2.20
2023-02-19T04:07:34.025Z,2.10
2023-02-19T04:10:22.069Z,2.60
2023-02-19T04:13:17.342Z,2.30
2023-02-19T04:16:08.670Z,1.97
2023-02-19T04:18:58.779Z,1.80
2023-02-19T04:21:47.205Z,2.07
2023-02-19T04:24:53.166Z,2.10
2023-02-19T04:27:41.053Z,2.20
2023-02-19T04:30:28.930Z,2.10
2023-02-19T04:33:16.937Z,2.23
2023-02-19T04:36:04.302Z,2.30
2023-02-19T04:38:51.520Z,2.03
2023-02-19T04:41:39.268Z,2.40
2023-02-19T04:44:26.675Z,2.30
2023-02-19T04:47:18.171Z,2.07
2023-02-19T04:50:05.658Z,2.10
2023-02-19T04:52:53.486Z,1.60
2023-02-19T04:55:41.275Z,1.97
2023-02-19T04:58:29.126Z,1.93
2023-02-19T05:01:16.484Z,1.90
2023-02-19T05:04:05.357Z,2.00
2023-02-19T05:06:53.309Z,1.57
2023-02-19T05:09:40.509Z,1.43
2023-02-19T05:12:28.253Z,1.57
2023-02-19T05:15:15.555Z,1.93
2023-02-19T05:18:03.339Z,1.70
2023-02-19T05:20:51.278Z,1.40
2023-02-19T05:23:39.197Z,1.90
2023-02-19T05:26:26.688Z,1.40
2023-02-19T05:29:14.549Z,1.97
2023-02-19T05:32:01.849Z,1.20
2023-02-19T05:34:49.101Z,1.40
2023-02-19T05:37:36.363Z,1.70
2023-02-19T05:40:23.690Z,1.57
2023-02-19T05:43:11.862Z,1.57
2023-02-19T05:45:59.437Z,1.43
2023-02-19T05:48:48.164Z,1.60
2023-02-19T05:51:35.934Z,1.63
2023-02-19T05:54:23.193Z,1.70
2023-02-19T05:57:10.959Z,1.60
2023-02-19T05:59:58.137Z,1.70
2023-02-19T06:02:45.366Z,1.83
2023-02-19T06:05:32.606Z,1.83
2023-02-19T06:08:20.369Z,1.53
2023-02-19T06:11:07.999Z,1.43
2023-02-19T06:13:55.295Z,1.20
2023-02-19T06:16:43.134Z,2.00
2023-02-19T06:19:30.407Z,1.60
2023-02-19T06:22:17.794Z,1.60
2023-02-19T06:25:05.780Z,1.93
2023-02-19T06:27:53.476Z,1.40
2023-02-19T06:30:40.842Z,1.57
2023-02-19T06:33:28.361Z,1.30
2023-02-19T06:36:17.177Z,1.30
2023-02-19T06:39:05.970Z,1.70
2023-02-19T06:41:59.164Z,1.47
2023-02-19T06:44:46.443Z,1.80
2023-02-19T06:47:34.135Z,1.40
2023-02-19T06:50:21.405Z,1.37
2023-02-19T06:53:09.887Z,1.37
2023-02-19T06:56:02.070Z,1.57
2023-02-19T06:58:49.403Z,1.40
2023-02-19T07:01:37.867Z,1.60
2023-02-19T07:04:25.691Z,1.50
2023-02-19T07:07:13.064Z,1.53
2023-02-19T07:10:00.270Z,2.27
2023-02-19T07:12:48.001Z,1.40
2023-02-19T07:15:36.043Z,1.77
2023-02-19T07:18:23.317Z,1.80
2023-02-19T07:21:13.336Z,1.70
2023-02-19T07:24:00.701Z,1.50
2023-02-19T07:26:48.453Z,1.80
2023-02-19T07:29:35.726Z,2.07
2023-02-19T07:32:23.586Z,2.03
2023-02-19T07:35:10.945Z,2.00
2023-02-19T07:37:58.812Z,2.10
2023-02-19T07:40:59.075Z,1.57
2023-02-19T07:43:46.897Z,1.80
2023-02-19T07:46:34.202Z,1.70
2023-02-19T07:49:22.016Z,1.63
2023-02-19T07:52:09.364Z,1.70
2023-02-19T07:54:57.120Z,2.50
2023-02-19T07:57:44.489Z,1.80
2023-02-19T08:00:31.788Z,1.70
2023-02-19T08:03:19.102Z,1.57
2023-02-19T08:06:07.225Z,1.83
2023-02-19T08:08:56.993Z,2.07
2023-02-19T08:12:03.443Z,1.70
2023-02-19T08:14:50.697Z,1.90
2023-02-19T08:17:38.434Z,1.87
2023-02-19T08:20:25.678Z,1.80
2023-02-19T08:23:14.114Z,2.10
2023-02-19T08:26:02.828Z,2.07
2023-02-19T08:28:50.245Z,1.70
2023-02-19T08:31:38.354Z,1.70
2023-02-19T08:34:26.154Z,1.50
2023-02-19T08:37:14.022Z,1.83
2023-02-19T08:40:01.461Z,1.67
2023-02-19T08:42:48.688Z,1.90
2023-02-19T08:45:38.136Z,1.60
2023-02-19T08:48:25.551Z,1.73
2023-02-19T08:51:13.708Z,1.50
2023-02-19T08:54:03.012Z,1.60
2023-02-19T08:56:51.022Z,1.90
2023-02-19T08:59:38.228Z,1.60
2023-02-19T09:02:26.468Z,1.63
2023-02-19T09:05:14.329Z,2.00
2023-02-19T09:08:01.901Z,1.60
2023-02-19T09:10:58.492Z,1.90
2023-02-19T09:13:46.211Z,1.73
2023-02-19T09:16:34.385Z,1.70
2023-02-19T09:19:22.150Z,1.50
2023-02-19T09:22:09.826Z,1.63
2023-02-19T09:24:57.226Z,1.50
2023-02-19T09:27:44.636Z,1.90
2023-02-19T09:30:32.432Z,1.90
2023-02-19T09:33:20.172Z,1.37
2023-02-19T09:36:07.605Z,2.07
2023-02-19T09:38:54.918Z,1.37
2023-02-19T09:41:50.134Z,1.17
2023-02-19T09:44:39.430Z,1.30
2023-02-19T09:47:28.364Z,1.30
2023-02-19T09:50:18.244Z,1.10
2023-02-19T09:53:10.893Z,0.80
2023-02-19T09:55:58.645Z,0.80
2023-02-19T09:58:50.858Z,0.70
2023-02-19T10:01:40.119Z,0.60
2023-02-19T10:04:28.323Z,0.80
2023-02-19T10:07:15.510Z,0.70
2023-02-19T10:10:09.102Z,0.80
2023-02-19T10:12:57.381Z,0.50
2023-02-19T10:15:49.796Z,0.57
2023-02-19T10:18:41.090Z,0.80
2023-02-19T10:21:29.344Z,0.70
2023-02-19T10:24:21.037Z,0.50
2023-02-19T10:27:13.279Z,0.63
2023-02-19T10:30:01.525Z,0.70
2023-02-19T10:33:01.159Z,0.60
2023-02-19T10:35:52.001Z,0.70
2023-02-19T10:38:46.376Z,0.60
2023-02-19T10:41:33.689Z,0.60
2023-02-19T10:44:28.758Z,0.53
2023-02-19T10:47:17.842Z,0.70
2023-02-19T10:50:05.369Z,0.47
2023-02-19T10:52:54.496Z,0.50
2023-02-19T10:55:41.711Z,0.50
2023-02-19T10:58:29.099Z,0.60
2023-02-19T11:01:21.407Z,0.40
2023-02-19T11:04:17.217Z,0.40
2023-02-19T11:07:10.765Z,0.63
2023-02-19T11:09:59.037Z,0.60
2023-02-19T11:12:48.119Z,0.40
2023-02-19T11:15:36.522Z,0.50
2023-02-19T11:18:25.883Z,0.70
2023-02-19T11:21:39.670Z,0.60
2023-02-19T11:24:33.994Z,0.60
2023-02-19T11:27:25.775Z,0.77
2023-02-19T11:30:35.574Z,0.60
2023-02-19T11:33:27.421Z,0.80
2023-02-19T11:36:18.176Z,0.90
2023-02-19T11:39:14.802Z,1.10
2023-02-19T11:42:08.344Z,0.57
2023-02-19T11:45:15.106Z,0.70
2023-02-19T11:48:08.548Z,0.60
2023-02-19T11:51:04.812Z,0.70
2023-02-19T11:54:04.843Z,0.60
2023-02-19T11:57:15.229Z,0.70
2023-02-19T12:00:14.770Z,0.87
2023-02-19T12:03:02.209Z,0.80
2023-02-19T12:06:01.810Z,0.90
2023-02-19T12:09:09.542Z,0.83
2023-02-19T12:12:09.178Z,0.70
2023-02-19T12:15:06.271Z,0.70
2023-02-19T12:17:57.272Z,0.57
2023-02-19T12:20:55.088Z,0.70
2023-02-19T12:23:45.379Z,0.60
2023-02-19T12:26:36.196Z,0.70
2023-02-19T12:29:41.400Z,0.80
2023-02-19T12:32:35.179Z,0.60
2023-02-19T12:35:35.355Z,0.80
2023-02-19T12:38:48.761Z,0.77
2023-02-19T12:41:44.118Z,0.80
2023-02-19T12:44:33.369Z,0.60
2023-02-19T12:47:23.643Z,0.63
2023-02-19T12:50:12.000Z,0.80
2023-02-19T12:53:02.827Z,0.70
2023-02-19T12:55:50.926Z,0.73
2023-02-19T12:58:42.447Z,0.80
2023-02-19T13:01:32.937Z,0.83
2023-02-19T13:04:25.945Z,0.80
2023-02-19T13:07:13.330Z,0.60
2023-02-19T13:10:04.955Z,0.70
2023-02-19T13:12:53.617Z,0.60
2023-02-19T13:15:46.054Z,0.73
2023-02-19T13:18:37.917Z,0.60
2023-02-19T13:21:46.630Z,0.70
2023-02-19T13:24:36.059Z,0.80
2023-02-19T13:27:23.853Z,0.93
2023-02-19T13:30:14.325Z,0.60
2023-02-19T13:33:05.205Z,0.60
2023-02-19T13:36:06.009Z,0.80
2023-02-19T13:38:53.947Z,0.90
2023-02-19T13:41:42.625Z,0.80
2023-02-19T13:44:31.678Z,0.80
2023-02-19T13:47:37.813Z,1.00
2023-02-19T13:50:30.247Z,0.80
2023-02-19T13:53:36.516Z,0.90
2023-02-19T13:56:34.018Z,0.60
2023-02-19T13:59:35.964Z,0.60
2023-02-19T14:02:23.325Z,0.60
2023-02-19T14:05:11.289Z,0.83
2023-02-19T14:07:58.577Z,0.70
2023-02-19T14:10:58.619Z,0.70
2023-02-19T14:13:52.086Z,0.63
2023-02-19T14:16:39.343Z,0.80
2023-02-19T14:19:42.040Z,0.70
2023-02-19T14:22:49.279Z,0.60
2023-02-19T14:25:39.637Z,0.80
2023-02-19T14:28:30.306Z,0.60
2023-02-19T14:31:38.092Z,0.80
2023-02-19T14:34:27.177Z,0.80
2023-02-19T14:37:20.156Z,0.70
2023-02-19T14:40:07.702Z,0.60
2023-02-19T14:42:57.401Z,0.80
2023-02-19T14:45:50.395Z,0.70
2023-02-19T14:48:40.692Z,0.80
2023-02-19T14:51:34.824Z,0.80
2023-02-19T14:54:42.390Z,0.80
2023-02-19T14:57:31.750Z,0.80
2023-02-19T15:00:25.210Z,1.00
2023-02-19T15:03:28.720Z,0.80
2023-02-19T15:06:19.400Z,1.00
2023-02-19T15:09:07.913Z,0.93
2023-02-19T15:11:56.965Z,0.93
2023-02-19T15:14:45.139Z,1.00
2023-02-19T15:17:33.754Z,0.83
2023-02-19T15:20:23.437Z,1.00
2023-02-19T15:23:15.855Z,2.17
2023-02-19T15:26:03.754Z,1.10
2023-02-19T15:29:23.517Z,1.10
2023-02-19T15:32:17.054Z,1.30
2023-02-19T15:35:05.124Z,1.30
2023-02-19T15:37:53.008Z,0.83
2023-02-19T15:40:40.221Z,0.90
2023-02-19T15:43:30.705Z,1.03
2023-02-19T15:46:20.326Z,1.10
2023-02-19T15:49:21.641Z,0.70
2023-02-19T15:52:12.063Z,0.80
2023-02-19T15:55:05.895Z,0.80
2023-02-19T15:57:58.551Z,0.70
2023-02-19T16:00:57.942Z,0.80
2023-02-19T16:03:45.726Z,0.90
2023-02-19T16:06:50.712Z,0.70
2023-02-19T16:09:39.185Z,0.80
2023-02-19T16:12:27.322Z,0.90
2023-02-19T16:15:24.013Z,0.70
2023-02-19T16:18:15.540Z,0.80
2023-02-19T16:21:06.237Z,0.60
2023-02-19T16:23:56.880Z,0.70
2023-02-19T16:26:45.696Z,0.80
2023-02-19T16:29:34.504Z,0.67
2023-02-19T16:32:22.756Z,1.00
2023-02-19T16:35:28.970Z,1.10
2023-02-19T16:38:17.747Z,0.70
2023-02-19T16:41:06.498Z,0.90
2023-02-19T16:43:54.256Z,0.70
2023-02-19T16:46:42.599Z,0.80
2023-02-19T16:49:30.071Z,1.00
2023-02-19T16:52:18.173Z,1.00
2023-02-19T16:55:13.267Z,0.90
2023-02-19T16:58:00.948Z,0.90
2023-02-19T17:00:48.484Z,0.83
2023-02-19T17:03:39.904Z,0.93
2023-02-19T17:06:28.520Z,0.80
2023-02-19T17:09:17.263Z,0.93
2023-02-19T17:12:06.727Z,0.80
2023-02-19T17:14:54.828Z,0.93
2023-02-19T17:17:43.208Z,1.20
2023-02-19T17:20:31.497Z,0.90
2023-02-19T17:23:19.017Z,0.70
2023-02-19T17:26:06.773Z,1.00
2023-02-19T17:28:54.712Z,1.03
2023-02-19T17:31:42.554Z,0.70
2023-02-19T17:34:30.646Z,0.90
2023-02-19T17:37:18.519Z,0.70
2023-02-19T17:40:30.627Z,0.77
2023-02-19T17:43:20.246Z,1.03
2023-02-19T17:46:14.312Z,1.00
2023-02-19T17:49:02.427Z,1.00
2023-02-19T17:51:49.964Z,0.83
2023-02-19T17:54:37.768Z,1.00
2023-02-19T17:57:25.934Z,1.30
2023-02-19T18:00:17.684Z,1.00
2023-02-19T18:03:07.477Z,0.90
2023-02-19T18:05:55.445Z,1.60
2023-02-19T18:08:51.043Z,1.10
2023-02-19T18:11:38.781Z,0.90
2023-02-19T18:14:26.860Z,1.10
2023-02-19T18:17:14.351Z,1.10
2023-02-19T18:20:02.208Z,1.00
2023-02-19T18:22:50.787Z,1.13
2023-02-19T18:25:38.125Z,1.20
2023-02-19T18:28:25.428Z,1.10
2023-02-19T18:31:13.266Z,1.30
2023-02-19T18:34:01.182Z,1.33
2023-02-19T18:36:49.298Z,1.27
2023-02-19T18:39:37.232Z,1.50
2023-02-19T18:42:24.687Z,1.30
2023-02-19T18:45:12.459Z,1.23
2023-02-19T18:48:00.059Z,1.00
2023-02-19T18:50:48.201Z,1.30
2023-02-19T18:53:35.996Z,1.10
2023-02-19T18:56:23.300Z,1.10
2023-02-19T18:59:10.711Z,1.20
2023-02-19T19:01:58.488Z,1.40
2023-02-19T19:04:49.883Z,1.33
2023-02-19T19:07:38.067Z,1.00
2023-02-19T19:10:25.857Z,1.33
2023-02-19T19:13:13.834Z,1.13
2023-02-19T19:16:01.397Z,1.70
2023-02-19T19:18:49.506Z,1.80
2023-02-19T19:21:36.991Z,1.63
2023-02-19T19:24:25.511Z,1.40
2023-02-19T19:27:14.257Z,1.40
2023-02-19T19:30:05.012Z,1.37
2023-02-19T19:32:53.728Z,1.47
2023-02-19T19:35:42.063Z,1.60
2023-02-19T19:38:30.121Z,1.10
2023-02-19T19:41:18.734Z,1.00
2023-02-19T19:44:06.540Z,1.23
2023-02-19T19:46:55.395Z,1.33
2023-02-19T19:49:43.340Z,0.97
2023-02-19T19:52:30.679Z,1.30
2023-02-19T19:55:18.674Z,1.50
2023-02-19T19:58:06.070Z,1.50
2023-02-19T20:00:54.003Z,1.07
2023-02-19T20:03:41.302Z,1.40
2023-02-19T20:06:31.373Z,0.93
2023-02-19T20:09:18.748Z,1.13
2023-02-19T20:12:07.050Z,1.27
2023-02-19T20:14:54.785Z,1.07
2023-02-19T20:17:42.178Z,1.33
2023-02-19T20:20:30.553Z,1.30
2023-02-19T20:23:18.099Z,1.40
2023-02-19T20:26:05.759Z,1.27
2023-02-19T20:28:53.447Z,1.33
2023-02-19T20:31:41.511Z,1.30
2023-02-19T20:34:31.537Z,1.27
2023-02-19T20:37:18.849Z,1.47
2023-02-19T20:40:07.002Z,1.20
2023-02-19T20:42:55.087Z,1.40
2023-02-19T20:45:45.660Z,1.33
2023-02-19T20:48:33.128Z,1.10
2023-02-19T20:51:20.486Z,1.30
2023-02-19T20:54:07.816Z,1.30
2023-02-19T20:56:55.858Z,1.40
2023-02-19T20:59:44.580Z,1.40
2023-02-19T21:02:32.069Z,1.20
2023-02-19T21:05:19.874Z,1.80
2023-02-19T21:08:07.146Z,1.77
2023-02-19T21:10:56.000Z,1.40
2023-02-19T21:13:43.684Z,1.60
2023-02-19T21:16:31.679Z,1.60
2023-02-19T21:19:19.287Z,1.30
2023-02-19T21:22:07.162Z,1.40
2023-02-19T21:24:54.566Z,1.20
2023-02-19T21:27:42.497Z,1.60
2023-02-19T21:30:29.747Z,1.50
2023-02-19T21:33:17.700Z,1.60
2023-02-19T21:36:05.671Z,1.73
2023-02-19T21:38:53.560Z,1.50
2023-02-19T21:41:40.859Z,1.57
2023-02-19T21:44:28.665Z,2.20
2023-02-19T21:47:16.593Z,1.80
2023-02-19T21:50:04.612Z,1.50
2023-02-19T21:52:52.524Z,1.50
2023-02-19T21:55:42.929Z,1.40
2023-02-19T21:58:38.005Z,1.77
2023-02-19T22:01:27.261Z,1.53
2023-02-19T22:04:16.627Z,1.77
2023-02-19T22:07:04.536Z,1.30
2023-02-19T22:09:52.346Z,1.50
2023-02-19T22:12:40.202Z,1.67
2023-02-19T22:15:27.612Z,1.50
2023-02-19T22:18:15.014Z,1.60
2023-02-19T22:21:03.402Z,2.50
2023-02-19T22:23:51.951Z,1.83
2023-02-19T22:26:39.789Z,1.30
2023-02-19T22:29:27.817Z,1.87
2023-02-19T22:32:15.298Z,1.63
2023-02-19T22:35:03.214Z,1.70
2023-02-19T22:37:50.588Z,1.40
2023-02-19T22:40:37.915Z,1.33
2023-02-19T22:43:25.178Z,1.73
2023-02-19T22:46:15.046Z,1.50
2023-02-19T22:49:03.653Z,1.37
2023-02-19T22:51:52.430Z,1.60
2023-02-19T22:54:40.951Z,1.80
2023-02-19T22:57:32.222Z,1.90
2023-02-19T23:00:21.760Z,1.33
2023-02-19T23:03:10.269Z,1.50
2023-02-19T23:05:58.099Z,1.67
2023-02-19T23:08:46.706Z,1.40
2023-02-19T23:11:36.630Z,1.30
2023-02-19T23:14:24.414Z,1.37
2023-02-19T23:17:12.415Z,1.67
2023-02-19T23:20:02.985Z,1.40
2023-02-19T23:22:53.801Z,1.60
2023-02-19T23:25:42.156Z,2.13
2023-02-19T23:28:30.322Z,1.60
2023-02-19T23:31:19.362Z,1.60
2023-02-19T23:34:08.275Z,2.00
2023-02-19T23:36:56.677Z,1.60
2023-02-19T23:39:44.597Z,1.90
2023-02-19T23:42:36.854Z,1.80
2023-02-19T23:45:24.805Z,1.87
2023-02-19T23:48:13.328Z,2.23
2023-02-19T23:51:02.553Z,2.00
2023-02-19T23:53:51.355Z,1.73
2023-02-19T23:56:39.236Z,1.83
2023-02-19T23:59:27.488Z,2.00
